createdAt,value
2022-09-13T07:01:30.823Z,2.40
2022-09-13T07:04:14.086Z,2.78
2022-09-13T07:07:08.470Z,2.67
2022-09-13T07:09:45.244Z,3.45
2022-09-13T07:12:32.586Z,2.65
2022-09-13T07:15:11.700Z,2.72
2022-09-13T07:18:03.322Z,2.50
2022-09-13T07:20:47.210Z,2.75
2022-09-13T07:30:33.234Z,3.95
2022-09-13T07:33:33.018Z,3.25
2022-09-13T07:36:06.980Z,3.60
2022-09-13T07:38:37.426Z,3.65
2022-09-13T07:44:25.210Z,3.42
2022-09-13T07:46:57.413Z,3.95
2022-09-13T07:49:29.357Z,3.40
2022-09-13T07:51:56.953Z,3.95
2022-09-13T07:54:26.650Z,3.47
2022-09-13T07:56:54.124Z,4.00
2022-09-13T07:59:25.862Z,3.92
2022-09-13T08:01:58.059Z,4.10
2022-09-13T08:04:28.177Z,3.92
2022-09-13T08:07:02.291Z,5.70
2022-09-13T08:09:31.129Z,5.23
2022-09-13T08:12:00.140Z,6.90
2022-09-13T08:14:28.821Z,4.45
2022-09-13T08:16:58.381Z,4.85
2022-09-13T08:19:27.207Z,4.80
2022-09-13T08:22:13.010Z,4.10
2022-09-13T08:24:52.866Z,5.30
2022-09-13T08:27:25.962Z,4.95
2022-09-13T08:30:01.727Z,4.45
2022-09-13T10:00:08.332Z,3.50
2022-09-13T10:06:36.877Z,3.60
2022-09-13T10:22:24.068Z,3.28
2022-09-13T10:34:56.107Z,2.70
2022-09-13T10:56:00.307Z,2.22
2022-09-13T10:58:27.957Z,1.98
2022-09-13T11:01:15.990Z,1.98
2022-09-13T11:03:51.542Z,2.00
2022-09-13T11:06:38.219Z,2.10
2022-09-13T11:09:35.129Z,1.77
2022-09-13T11:58:02.495Z,1.30
2022-09-13T12:00:45.027Z,1.52
2022-09-13T12:03:23.933Z,2.70
2022-09-13T12:06:15.736Z,2.05
2022-09-13T12:08:53.494Z,1.70
2022-09-13T12:11:52.149Z,1.83
2022-09-13T12:18:38.528Z,1.77
2022-09-13T12:24:39.951Z,2.10
2022-09-13T12:30:46.069Z,1.77
2022-09-13T12:37:54.579Z,2.30
2022-09-13T12:40:55.739Z,2.22
2022-09-13T12:44:15.518Z,1.45
2022-09-13T12:50:56.302Z,1.95
2022-09-13T12:54:20.792Z,7.68
2022-09-13T13:00:16.833Z,1.73
2022-09-13T13:03:15.127Z,2.40
2022-09-13T13:09:43.448Z,2.67
2022-09-13T13:12:45.005Z,1.90
2022-09-13T13:15:21.084Z,2.25
2022-09-13T13:17:59.584Z,2.42
2022-09-13T13:20:43.826Z,1.80
2022-09-13T13:27:36.504Z,2.30
2022-09-13T13:34:17.147Z,2.80
2022-09-13T13:36:53.999Z,2.40
2022-09-13T13:39:30.301Z,2.60
2022-09-13T13:42:40.257Z,1.92
2022-09-13T13:45:17.894Z,2.15
2022-09-13T13:49:14.128Z,2.10
2022-09-13T13:59:33.430Z,1.88
2022-09-13T14:02:02.054Z,2.10
2022-09-13T14:04:53.575Z,1.95
2022-09-13T14:07:31.429Z,2.00
2022-09-13T14:10:07.710Z,1.77
2022-09-13T14:13:18.900Z,2.10
2022-09-13T14:24:33.513Z,1.60
2022-09-13T14:27:09.291Z,1.90
2022-09-13T14:32:09.512Z,1.75
2022-09-13T14:34:38.987Z,2.15
2022-09-13T14:37:16.696Z,2.00
2022-09-13T14:40:03.790Z,2.60
2022-09-13T14:42:42.263Z,1.73
2022-09-13T14:45:28.857Z,1.80
2022-09-13T14:48:05.006Z,2.10
2022-09-13T14:50:42.905Z,1.88
2022-09-13T14:53:20.064Z,1.85
2022-09-13T14:55:54.622Z,2.08
2022-09-13T14:58:25.410Z,1.90
2022-09-13T15:01:03.869Z,2.30
2022-09-13T15:03:31.023Z,1.70
2022-09-13T15:05:59.433Z,2.45
2022-09-13T15:08:45.696Z,1.50
2022-09-13T15:36:37.435Z,2.33
2022-09-13T15:39:18.640Z,1.90
2022-09-13T15:41:57.061Z,1.73
2022-09-13T15:44:30.128Z,1.88
2022-09-13T15:47:00.041Z,1.90
2022-09-13T15:49:30.413Z,2.00
2022-09-13T15:52:05.918Z,2.22
2022-09-13T15:54:59.968Z,1.83
2022-09-13T15:57:30.524Z,2.08
2022-09-13T16:02:51.654Z,2.17
2022-09-13T16:05:19.129Z,2.25
2022-09-13T16:07:48.916Z,2.30
2022-09-13T16:10:18.801Z,1.80
2022-09-13T16:12:51.733Z,1.92
2022-09-13T16:15:19.220Z,1.80
2022-09-13T16:17:51.834Z,1.92
2022-09-13T16:23:31.589Z,2.00
2022-09-13T16:29:25.152Z,2.03
2022-09-13T16:31:52.429Z,1.83
2022-09-13T16:34:19.708Z,2.53
2022-09-13T16:36:51.012Z,1.98
2022-09-13T16:39:18.788Z,1.70
2022-09-13T16:41:45.963Z,2.08
2022-09-13T16:44:14.653Z,1.60
2022-09-13T16:46:45.476Z,1.83
2022-09-13T16:49:13.415Z,2.00
2022-09-13T16:51:46.397Z,1.85
2022-09-13T16:54:14.447Z,2.17
2022-09-13T16:56:45.840Z,1.98
2022-09-13T16:59:15.759Z,1.83
2022-09-13T17:02:02.929Z,2.10
2022-09-13T17:04:31.621Z,2.25
2022-09-13T17:07:02.166Z,1.90
2022-09-13T17:09:30.936Z,2.00
2022-09-13T17:12:18.403Z,2.60
2022-09-13T17:20:55.963Z,2.40
2022-09-13T17:37:05.292Z,1.75
2022-09-13T17:46:32.972Z,2.53
2022-09-13T17:49:02.684Z,1.30
2022-09-13T17:51:31.485Z,1.83
2022-09-13T17:54:00.411Z,2.30
2022-09-13T17:56:51.396Z,2.80
2022-09-13T17:59:21.718Z,2.58
2022-09-13T18:02:47.391Z,3.03
2022-09-13T18:05:33.814Z,2.70
2022-09-13T18:12:29.055Z,2.28
2022-09-13T18:14:56.059Z,2.20
2022-09-13T18:17:31.372Z,2.00
2022-09-13T18:19:59.525Z,2.10
2022-09-13T18:22:27.685Z,2.53
2022-09-13T18:24:54.758Z,2.22
2022-09-13T18:27:26.063Z,2.03
2022-09-13T20:32:30.527Z,1.98
2022-09-13T20:34:57.606Z,2.20
2022-09-13T20:37:24.734Z,2.30
2022-09-13T20:39:51.808Z,2.40
2022-09-13T20:42:20.040Z,2.00
2022-09-13T20:44:47.275Z,2.58
2022-09-13T20:47:15.494Z,1.90
2022-09-13T20:49:43.701Z,2.22
2022-09-13T20:52:10.607Z,2.33
2022-09-13T20:54:38.117Z,2.70
2022-09-13T20:57:05.302Z,2.00
2022-09-13T20:59:32.505Z,1.85
2022-09-13T21:01:59.560Z,2.10
2022-09-13T21:04:27.570Z,2.38
2022-09-13T21:07:14.894Z,2.42
2022-09-13T21:09:42.680Z,1.95
2022-09-13T21:12:10.607Z,2.42
2022-09-13T21:14:37.643Z,2.67
2022-09-13T21:17:06.754Z,2.30
2022-09-13T21:19:34.750Z,2.58
2022-09-13T21:22:04.416Z,2.42
2022-09-13T21:24:32.311Z,2.47
2022-09-13T21:27:00.414Z,3.80
2022-09-13T21:29:27.448Z,2.47
2022-09-13T21:31:56.048Z,2.55
2022-09-13T21:34:24.590Z,1.98
2022-09-13T21:36:55.212Z,2.60
2022-09-13T21:39:24.284Z,2.42
2022-09-13T21:41:51.736Z,2.00
2022-09-13T21:44:19.091Z,2.00
2022-09-13T21:46:49.711Z,2.20
2022-09-13T21:49:19.602Z,2.10
2022-09-13T21:51:50.573Z,2.83
2022-09-13T21:57:03.261Z,2.22
2022-09-13T21:59:34.119Z,2.67
2022-09-13T22:02:02.384Z,2.15
2022-09-13T22:04:29.670Z,2.08
2022-09-13T22:07:05.713Z,2.33
2022-09-13T22:09:35.778Z,1.90
2022-09-13T22:12:03.147Z,2.38
2022-09-13T22:14:31.365Z,1.60
2022-09-13T22:17:00.982Z,2.13
2022-09-13T22:19:30.859Z,2.47
2022-09-13T22:21:59.715Z,2.47
2022-09-13T22:24:30.071Z,2.00
2022-09-13T22:26:58.382Z,1.95
2022-09-13T22:29:25.815Z,2.67
2022-09-13T22:31:53.135Z,2.28
2022-09-13T22:34:22.390Z,1.90
2022-09-13T22:36:49.547Z,2.20
2022-09-13T22:39:17.173Z,1.73
2022-09-13T22:41:44.569Z,1.85
2022-09-13T22:44:13.679Z,2.20
2022-09-13T22:46:43.220Z,2.13
2022-09-13T22:49:18.203Z,2.08
2022-09-13T22:51:45.556Z,2.00
2022-09-13T22:54:13.986Z,2.33
2022-09-13T22:56:41.216Z,2.28
2022-09-13T22:59:12.828Z,2.40
2022-09-13T23:01:40.041Z,2.15
2022-09-13T23:04:07.309Z,2.13
2022-09-13T23:06:34.759Z,2.22
2022-09-13T23:09:03.033Z,1.70
2022-09-13T23:11:31.589Z,2.05
2022-09-13T23:14:10.128Z,2.42
2022-09-13T23:16:45.646Z,2.47
2022-09-13T23:19:13.334Z,1.70
2022-09-13T23:21:40.657Z,2.30
2022-09-13T23:24:10.605Z,2.65
2022-09-13T23:26:38.025Z,2.58
2022-09-13T23:29:05.158Z,2.33
2022-09-13T23:31:34.183Z,2.25
2022-09-13T23:34:02.854Z,1.92
2022-09-13T23:36:31.950Z,2.60
2022-09-13T23:39:07.884Z,2.90
2022-09-13T23:41:37.535Z,2.13
2022-09-13T23:44:05.594Z,2.45
2022-09-13T23:49:14.292Z,2.42
2022-09-13T23:51:42.945Z,2.97
2022-09-13T23:54:10.222Z,2.97
2022-09-13T23:56:37.483Z,2.67
2022-09-13T23:59:04.598Z,2.63
